Time;durP1;ratioP1;P1;durP2;ratioP2;P2;SDS_P1;SDS_P2;PMS_P1;PMS_P2;Temp;Humidity;BMP_temperature;BMP_pressure;BME280_temperature;BME280_humidity;BME280_pressure;Samples;Min_cycle;Max_cycle;Signal;HPM_P1;HPM_P2
2023/09/17 00:00:44;;;;;;;24.35;17.05;;;;;;;17.32;100.00;101377.00;5006720;28;20036;-81
2023/09/17 00:03:11;;;;;;;22.70;15.95;;;;;;;17.44;100.00;101384.22;4991535;28;20124;-81
2023/09/17 00:05:36;;;;;;;21.15;15.73;;;;;;;17.55;100.00;101387.78;4994350;28;20029;-81
2023/09/17 00:08:03;;;;;;;24.55;17.67;;;;;;;17.16;100.00;101371.03;5015422;28;20029;-81
2023/09/17 00:10:29;;;;;;;19.13;13.02;;;;;;;17.45;100.00;101397.94;5014280;28;20463;-81
2023/09/17 00:12:55;;;;;;;20.30;13.55;;;;;;;17.47;100.00;101372.88;5001069;28;20156;-81
2023/09/17 00:15:22;;;;;;;19.38;13.35;;;;;;;17.70;100.00;101399.03;5000197;28;20054;-81
2023/09/17 00:17:48;;;;;;;25.13;16.23;;;;;;;17.65;100.00;101389.75;4995898;28;20033;-81
2023/09/17 00:20:13;;;;;;;17.80;12.63;;;;;;;17.63;100.00;101380.88;5003593;28;20623;-81
2023/09/17 00:22:39;;;;;;;20.00;12.48;;;;;;;17.66;100.00;101384.88;5010989;28;20531;-81
2023/09/17 00:25:05;;;;;;;24.83;17.10;;;;;;;17.65;100.00;101389.75;4983756;28;20063;-83
2023/09/17 00:27:31;;;;;;;25.30;17.20;;;;;;;17.51;100.00;101387.00;4998140;28;20453;-83
2023/09/17 00:29:56;;;;;;;23.60;18.85;;;;;;;17.44;100.00;101389.88;4982423;28;20104;-83
2023/09/17 00:32:21;;;;;;;21.40;15.02;;;;;;;17.47;100.00;101395.50;5007455;28;20060;-83
2023/09/17 00:34:47;;;;;;;25.50;16.33;;;;;;;17.38;100.00;101385.88;5009486;28;20397;-81
2023/09/17 00:37:12;;;;;;;20.10;14.02;;;;;;;17.47;100.00;101377.72;4991358;28;20108;-81
2023/09/17 00:39:39;;;;;;;24.60;17.38;;;;;;;17.46;100.00;101367.63;4991325;28;20056;-82
2023/09/17 00:42:06;;;;;;;26.38;16.75;;;;;;;17.32;100.00;101365.69;4989279;28;20037;-81
2023/09/17 00:44:31;;;;;;;21.42;13.77;;;;;;;17.42;100.00;101373.31;4989242;28;20604;-83
2023/09/17 00:46:59;;;;;;;19.52;13.50;;;;;;;17.50;100.00;101365.59;4996956;28;20078;-83
2023/09/17 00:49:24;;;;;;;22.42;14.68;;;;;;;17.53;100.00;101375.28;5003375;28;20099;-83
2023/09/17 00:51:50;;;;;;;18.88;13.30;;;;;;;17.58;100.00;101378.47;4990450;28;20458;-83
2023/09/17 00:54:15;;;;;;;19.55;13.63;;;;;;;17.65;100.00;101372.75;4985462;28;20033;-83
2023/09/17 00:56:41;;;;;;;17.23;12.88;;;;;;;17.70;100.00;101379.22;5002741;28;20054;-84
2023/09/17 00:59:07;;;;;;;20.70;14.38;;;;;;;17.68;100.00;101371.91;5006455;28;20512;-83
2023/09/17 01:01:33;;;;;;;19.50;13.98;;;;;;;17.67;100.00;101367.50;4994993;28;20083;-83
2023/09/17 01:04:00;;;;;;;17.67;12.98;;;;;;;17.70;100.00;101373.53;5002187;28;20022;-83
2023/09/17 01:06:26;;;;;;;18.20;12.60;;;;;;;17.60;100.00;101363.91;5003791;28;20501;-83
2023/09/17 01:08:51;;;;;;;19.42;14.05;;;;;;;17.62;100.00;101362.25;5004407;28;20045;-83
2023/09/17 01:11:18;;;;;;;19.90;13.77;;;;;;;17.58;100.00;101360.66;5001283;28;20025;-83
2023/09/17 01:13:49;;;;;;;17.13;12.23;;;;;;;17.57;100.00;101362.72;4987776;28;20050;-83
2023/09/17 01:16:16;;;;;;;17.08;12.02;;;;;;;17.60;100.00;101359.06;4994679;28;20030;-83
2023/09/17 01:18:42;;;;;;;20.02;14.07;;;;;;;17.54;100.00;101366.38;4979374;28;20057;-83
2023/09/17 01:21:17;;;;;;;17.75;13.07;;;;;;;17.61;100.00;101366.31;4988276;28;20486;-83
2023/09/17 01:24:04;;;;;;;16.95;12.70;;;;;;;17.60;100.00;101364.72;5001585;28;20041;-83
2023/09/17 01:26:30;;;;;;;23.10;13.98;;;;;;;17.54;100.00;101359.88;5001844;28;20037;-83
2023/09/17 01:28:56;;;;;;;18.35;13.80;;;;;;;17.52;100.00;101351.84;5004068;28;20033;-83
2023/09/17 01:31:23;;;;;;;18.08;13.38;;;;;;;17.56;100.00;101355.44;4982076;28;20053;-83
2023/09/17 01:33:50;;;;;;;20.30;12.65;;;;;;;17.51;100.00;101350.22;5000603;28;20038;-82
2023/09/17 01:36:26;;;;;;;18.38;13.73;;;;;;;17.55;100.00;101351.00;4994566;28;20033;-82
2023/09/17 01:38:58;;;;;;;22.75;14.32;;;;;;;17.51;100.00;101352.25;5000710;28;20116;-83
2023/09/17 01:41:27;;;;;;;20.60;13.50;;;;;;;17.51;100.00;101361.53;5007168;28;20386;-83
2023/09/17 01:43:54;;;;;;;17.05;12.18;;;;;;;17.48;100.00;101362.38;5001960;28;20080;-83
2023/09/17 01:46:20;;;;;;;17.42;12.10;;;;;;;17.49;100.00;101355.47;4980608;28;20032;-83
2023/09/17 01:48:46;;;;;;;17.67;12.38;;;;;;;17.43;100.00;101349.47;5001808;28;20038;-83
2023/09/17 01:51:13;;;;;;;17.10;12.23;;;;;;;17.46;100.00;101345.00;4997977;28;20022;-83
2023/09/17 01:53:39;;;;;;;18.30;14.90;;;;;;;17.41;100.00;101339.75;5003677;28;20527;-83
2023/09/17 01:56:05;;;;;;;16.63;12.55;;;;;;;17.44;100.00;101338.94;4979818;28;20038;-83
2023/09/17 01:58:30;;;;;;;17.30;13.90;;;;;;;17.49;100.00;101335.66;4982458;28;20409;-83
2023/09/17 02:00:56;;;;;;;20.50;13.98;;;;;;;17.45;100.00;101334.88;5000258;28;20177;-83
2023/09/17 02:03:22;;;;;;;18.08;13.48;;;;;;;17.42;100.00;101335.72;4987656;28;20088;-83
2023/09/17 02:05:47;;;;;;;18.33;13.85;;;;;;;17.43;100.00;101326.00;4986595;28;20037;-83
2023/09/17 02:08:12;;;;;;;17.73;13.30;;;;;;;17.43;100.00;101324.00;4983082;28;20572;-83
2023/09/17 02:10:38;;;;;;;23.35;14.20;;;;;;;17.40;100.00;101326.84;5005779;28;20482;-83
2023/09/17 02:13:03;;;;;;;19.30;14.85;;;;;;;17.39;100.00;101330.88;4987988;28;20484;-83
2023/09/17 02:15:29;;;;;;;21.83;14.70;;;;;;;17.31;100.00;101324.47;4977539;28;20061;-83
2023/09/17 02:17:54;;;;;;;19.77;14.80;;;;;;;17.26;100.00;101325.69;4981631;28;20030;-83
2023/09/17 02:20:20;;;;;;;26.17;16.38;;;;;;;17.18;100.00;101317.66;4979659;28;20122;-83
2023/09/17 02:22:45;;;;;;;24.23;15.77;;;;;;;17.07;100.00;101312.06;4975321;28;21376;-83
2023/09/17 02:25:11;;;;;;;24.00;17.25;;;;;;;17.23;100.00;101320.88;4981617;28;20038;-83
2023/09/17 02:27:38;;;;;;;20.45;14.50;;;;;;;17.25;100.00;101331.78;4985585;28;20445;-83
2023/09/17 02:30:04;;;;;;;22.48;15.77;;;;;;;17.27;100.00;101321.66;4984229;28;20117;-83
2023/09/17 02:32:30;;;;;;;19.50;14.63;;;;;;;17.31;100.00;101323.66;5000449;28;20030;-83
2023/09/17 02:34:56;;;;;;;21.33;14.15;;;;;;;17.27;100.00;101318.03;4990128;28;20030;-83
2023/09/17 02:37:22;;;;;;;26.45;15.25;;;;;;;17.24;100.00;101314.03;4973265;28;20053;-84
2023/09/17 02:39:48;;;;;;;22.30;13.93;;;;;;;17.29;100.00;101321.25;4983891;28;20027;-83
2023/09/17 02:42:13;;;;;;;20.85;15.32;;;;;;;17.25;100.00;101314.81;4984309;28;20482;-83
2023/09/17 02:44:39;;;;;;;18.98;14.50;;;;;;;17.24;100.00;101325.34;4987354;28;20043;-83
2023/09/17 02:47:04;;;;;;;20.77;14.80;;;;;;;17.28;100.00;101326.09;4979835;28;20030;-83
2023/09/17 02:49:30;;;;;;;23.75;15.65;;;;;;;17.21;100.00;101323.31;4984259;28;20034;-83
2023/09/17 02:51:55;;;;;;;26.38;16.60;;;;;;;17.12;100.00;101320.16;4985055;28;20023;-83
2023/09/17 02:54:21;;;;;;;24.33;16.17;;;;;;;17.19;100.00;101324.94;4984233;28;20315;-83
2023/09/17 02:56:46;;;;;;;19.88;13.95;;;;;;;17.21;100.00;101319.69;4990762;28;20038;-83
2023/09/17 02:59:11;;;;;;;23.42;15.57;;;;;;;17.15;100.00;101319.31;4998660;28;20045;-83
2023/09/17 03:01:38;;;;;;;23.55;16.17;;;;;;;17.17;100.00;101314.03;4985377;28;20177;-83
2023/09/17 03:04:04;;;;;;;21.50;15.05;;;;;;;17.18;100.00;101310.00;4984963;28;20463;-83
2023/09/17 03:06:30;;;;;;;26.40;16.17;;;;;;;17.13;100.00;101320.94;4985785;28;20550;-83
2023/09/17 03:08:56;;;;;;;28.90;19.50;;;;;;;17.03;100.00;101319.78;4988528;28;20034;-82
2023/09/17 03:11:23;;;;;;;23.65;16.67;;;;;;;16.95;100.00;101312.53;4988738;28;20022;-83
2023/09/17 03:13:49;;;;;;;31.65;20.95;;;;;;;16.78;100.00;101331.16;5004347;28;20058;-83
2023/09/17 03:16:18;;;;;;;23.70;16.52;;;;;;;17.03;100.00;101336.75;4987020;28;20379;-83
2023/09/17 03:18:44;;;;;;;33.17;17.73;;;;;;;17.13;100.00;101340.75;4997623;28;20573;-83
2023/09/17 03:21:11;;;;;;;23.17;15.85;;;;;;;16.82;100.00;101346.13;4984202;28;20514;-83
2023/09/17 03:23:36;;;;;;;23.70;16.00;;;;;;;17.01;100.00;101340.00;4983918;28;20573;-83
2023/09/17 03:26:03;;;;;;;21.33;14.80;;;;;;;16.96;100.00;101331.13;4979126;28;20026;-83
2023/09/17 03:28:32;;;;;;;26.80;17.95;;;;;;;17.04;100.00;101338.38;4988015;28;20554;-83
2023/09/17 03:30:58;;;;;;;21.83;14.43;;;;;;;17.03;100.00;101333.91;4984149;28;20037;-84
2023/09/17 03:33:23;;;;;;;25.88;16.77;;;;;;;17.12;100.00;101334.28;4980221;28;20605;-83
2023/09/17 03:35:49;;;;;;;33.17;21.45;;;;;;;16.97;100.00;101333.56;4984919;28;21761;-83
2023/09/17 03:38:18;;;;;;;27.92;18.17;;;;;;;16.83;100.00;101334.41;5002124;28;20095;-83
2023/09/17 03:40:43;;;;;;;30.38;19.83;;;;;;;16.64;100.00;101329.22;4999240;28;20233;-83
2023/09/17 03:43:09;;;;;;;30.45;19.15;;;;;;;16.74;100.00;101325.53;4987551;28;20561;-83
2023/09/17 03:45:35;;;;;;;25.50;17.30;;;;;;;16.78;100.00;101326.34;4983107;28;20046;-83
2023/09/17 03:48:00;;;;;;;28.80;18.65;;;;;;;16.85;100.00;101323.50;4988125;28;20022;-83
2023/09/17 03:50:27;;;;;;;25.27;15.20;;;;;;;16.83;100.00;101320.28;4986580;28;20093;-83
2023/09/17 03:52:58;;;;;;;24.60;16.08;;;;;;;16.84;100.00;101304.94;4985501;28;20399;-83
2023/09/17 03:55:23;;;;;;;25.20;17.17;;;;;;;16.78;100.00;101303.72;4983866;28;20030;-83
2023/09/17 03:57:50;;;;;;;23.48;16.00;;;;;;;16.86;100.00;101311.00;4988054;28;20092;-83
2023/09/17 04:00:17;;;;;;;30.45;19.88;;;;;;;16.80;100.00;101301.31;4979975;28;20030;-84
2023/09/17 04:02:43;;;;;;;30.48;20.20;;;;;;;16.66;100.00;101301.34;4982877;28;20136;-83
2023/09/17 04:05:12;;;;;;;33.55;20.02;;;;;;;16.71;100.00;101292.44;4983588;28;20025;-84
2023/09/17 04:07:39;;;;;;;29.23;19.30;;;;;;;16.83;100.00;101289.19;4991974;28;20089;-83
2023/09/17 04:10:06;;;;;;;30.30;20.52;;;;;;;16.79;100.00;101284.72;4981555;28;20034;-83
2023/09/17 04:12:32;;;;;;;29.33;18.27;;;;;;;16.81;100.00;101277.47;4980873;28;20408;-83
2023/09/17 04:14:58;;;;;;;26.55;18.30;;;;;;;16.80;100.00;101278.72;4976040;28;20042;-83
2023/09/17 04:17:23;;;;;;;30.27;20.10;;;;;;;16.82;100.00;101287.59;4988182;28;20038;-83
2023/09/17 04:19:50;;;;;;;31.17;19.33;;;;;;;16.76;100.00;101282.72;4980111;28;20026;-84
2023/09/17 04:22:16;;;;;;;26.48;16.02;;;;;;;16.83;100.00;101285.56;5008214;28;20042;-83
2023/09/17 04:24:42;;;;;;;28.67;19.02;;;;;;;16.81;100.00;101285.97;4999753;28;20139;-83
2023/09/17 04:27:08;;;;;;;25.75;15.90;;;;;;;16.80;100.00;101273.06;4996898;28;20053;-83
2023/09/17 04:29:33;;;;;;;29.75;19.58;;;;;;;16.90;100.00;101273.41;4993875;28;20036;-83
2023/09/17 04:31:59;;;;;;;23.45;16.35;;;;;;;16.61;100.00;101277.16;4997337;28;20029;-84
2023/09/17 04:34:24;;;;;;;28.08;18.30;;;;;;;16.84;100.00;101285.16;5000974;28;20037;-83
2023/09/17 04:36:50;;;;;;;24.30;16.17;;;;;;;16.80;100.00;101284.34;5007642;28;20029;-83
2023/09/17 04:39:16;;;;;;;23.88;16.98;;;;;;;16.74;100.00;101280.31;5005439;28;20112;-83
2023/09/17 04:41:42;;;;;;;24.38;17.25;;;;;;;16.74;100.00;101279.50;5003430;28;20037;-83
2023/09/17 04:44:09;;;;;;;29.17;17.88;;;;;;;16.63;100.00;101265.41;5007473;28;20029;-83
2023/09/17 04:46:34;;;;;;;26.45;15.18;;;;;;;16.85;100.00;101269.78;5008046;28;20045;-83
2023/09/17 04:49:00;;;;;;;26.58;15.82;;;;;;;16.85;100.00;101264.13;5003105;28;20061;-82
2023/09/17 04:51:27;;;;;;;30.52;19.73;;;;;;;16.65;100.00;101262.97;5002345;28;20428;-83
2023/09/17 04:53:52;;;;;;;28.20;17.88;;;;;;;16.64;100.00;101248.06;5006295;28;20052;-83
2023/09/17 04:56:18;;;;;;;30.20;17.70;;;;;;;16.69;100.00;101266.59;4986717;28;20083;-83
2023/09/17 04:58:43;;;;;;;27.35;17.85;;;;;;;16.52;100.00;101253.34;5002899;28;20046;-83
2023/09/17 05:01:09;;;;;;;25.80;16.20;;;;;;;16.53;100.00;101266.25;4984655;28;20124;-83
2023/09/17 05:03:35;;;;;;;30.77;17.23;;;;;;;16.50;100.00;101261.44;4989526;28;20509;-83
2023/09/17 05:06:00;;;;;;;26.70;16.95;;;;;;;16.55;100.00;101258.16;4995188;28;20084;-84
2023/09/17 05:08:28;;;;;;;27.05;16.02;;;;;;;16.62;100.00;101267.44;4990802;28;20483;-84
2023/09/17 05:10:53;;;;;;;28.23;18.33;;;;;;;16.43;100.00;101254.59;5005181;28;21422;-83
2023/09/17 05:13:19;;;;;;;32.75;19.60;;;;;;;16.50;100.00;101253.75;5006166;28;20572;-82
2023/09/17 05:15:44;;;;;;;22.83;16.08;;;;;;;16.58;100.00;101260.19;4985080;28;20124;-83
2023/09/17 05:18:10;;;;;;;30.40;18.65;;;;;;;16.49;100.00;101262.66;5001960;28;20529;-83
2023/09/17 05:20:38;;;;;;;25.67;17.42;;;;;;;16.58;100.00;101263.03;5002158;28;20034;-83
2023/09/17 05:23:03;;;;;;;30.65;18.30;;;;;;;16.51;100.00;101271.50;4995406;28;20140;-83
2023/09/17 05:25:29;;;;;;;31.80;18.85;;;;;;;16.66;100.00;101273.09;5002964;28;20542;-83
2023/09/17 05:27:54;;;;;;;32.67;19.30;;;;;;;16.63;100.00;101269.06;4999509;28;20759;-83
2023/09/17 05:30:19;;;;;;;30.45;19.92;;;;;;;16.58;100.00;101277.94;4999624;28;20029;-83
2023/09/17 05:32:45;;;;;;;26.08;15.55;;;;;;;16.66;100.00;101273.88;4986297;28;20520;-83
2023/09/17 05:35:10;;;;;;;19.38;14.18;;;;;;;16.73;100.00;101275.06;4988221;28;20029;-84
2023/09/17 05:37:36;;;;;;;23.40;14.77;;;;;;;16.88;100.00;101275.84;4982070;28;20026;-83
2023/09/17 05:40:01;;;;;;;27.40;18.77;;;;;;;16.76;100.00;101283.53;4991987;28;20035;-83
2023/09/17 05:42:26;;;;;;;28.42;17.60;;;;;;;16.70;100.00;101296.50;4983349;28;20038;-83
2023/09/17 05:44:52;;;;;;;27.85;17.85;;;;;;;16.69;100.00;101294.84;4982641;28;20032;-84
2023/09/17 05:47:17;;;;;;;31.75;18.33;;;;;;;16.74;100.00;101287.97;4986216;28;20064;-84
2023/09/17 05:49:43;;;;;;;29.88;17.02;;;;;;;16.63;100.00;101296.50;5000500;28;20060;-83
2023/09/17 05:52:09;;;;;;;28.00;17.42;;;;;;;16.73;100.00;101301.31;5004055;28;20028;-83
2023/09/17 05:54:34;;;;;;;33.60;20.20;;;;;;;16.76;100.00;101294.03;4968972;28;20030;-82
2023/09/17 05:56:59;;;;;;;28.52;17.73;;;;;;;16.79;100.00;101294.00;5000776;28;20425;-81
2023/09/17 05:59:25;;;;;;;30.45;18.35;;;;;;;16.79;100.00;101291.19;5000954;28;20116;-81
2023/09/17 06:01:50;;;;;;;36.92;21.08;;;;;;;16.76;100.00;101289.19;4969586;28;20127;-81
2023/09/17 06:04:16;;;;;;;34.95;21.02;;;;;;;16.63;100.00;101293.66;4984292;28;20030;-81
2023/09/17 06:06:42;;;;;;;30.27;18.65;;;;;;;16.71;100.00;101298.09;5000483;28;20037;-81
2023/09/17 06:09:08;;;;;;;38.60;23.35;;;;;;;16.54;100.00;101298.97;4993605;28;20036;-81
2023/09/17 06:11:34;;;;;;;32.70;19.17;;;;;;;16.64;100.00;101303.78;4995852;28;20030;-81
2023/09/17 06:14:00;;;;;;;33.17;21.65;;;;;;;16.62;100.00;101294.91;4978651;28;20139;-81
2023/09/17 06:16:25;;;;;;;27.33;17.65;;;;;;;16.59;100.00;101299.34;4994429;28;20028;-81
2023/09/17 06:18:51;;;;;;;28.00;17.67;;;;;;;16.56;100.00;101302.19;4998767;28;20056;-81
2023/09/17 06:21:17;;;;;;;32.90;20.63;;;;;;;16.53;100.00;101292.50;4989914;28;20088;-81
2023/09/17 06:23:42;;;;;;;27.67;18.13;;;;;;;16.46;100.00;101284.88;4980641;28;20042;-81
2023/09/17 06:26:08;;;;;;;31.50;19.98;;;;;;;16.55;100.00;101290.09;5000572;28;20466;-81
2023/09/17 06:28:34;;;;;;;39.45;22.45;;;;;;;16.49;100.00;101288.09;4996406;28;20534;-81
2023/09/17 06:31:01;;;;;;;34.58;19.70;;;;;;;16.54;100.00;101277.16;5007320;28;20068;-81
2023/09/17 06:33:27;;;;;;;34.67;21.33;;;;;;;16.55;100.00;101273.13;5000423;28;20387;-81
2023/09/17 06:35:53;;;;;;;32.90;20.33;;;;;;;16.60;100.00;101286.03;4979997;28;20041;-82
2023/09/17 06:38:18;;;;;;;36.13;20.13;;;;;;;16.49;100.00;101288.09;4984083;28;20034;-81
2023/09/17 06:40:43;;;;;;;31.35;20.08;;;;;;;16.43;100.00;101277.19;4997149;28;20033;-81
2023/09/17 06:43:09;;;;;;;36.22;20.98;;;;;;;16.42;100.00;101269.94;5001243;28;20034;-81
2023/09/17 06:45:34;;;;;;;39.72;23.98;;;;;;;16.39;100.00;101269.97;4994043;28;20032;-81
2023/09/17 06:48:00;;;;;;;29.15;19.50;;;;;;;16.57;100.00;101276.34;4976069;28;20460;-81
2023/09/17 06:50:25;;;;;;;30.42;17.50;;;;;;;16.54;100.00;101270.72;4999159;28;20140;-81
2023/09/17 06:52:50;;;;;;;36.47;21.35;;;;;;;16.61;100.00;101270.66;4999570;28;20044;-81
2023/09/17 06:55:16;;;;;;;35.33;20.70;;;;;;;16.48;100.00;101263.88;4977117;28;20040;-81
2023/09/17 06:57:41;;;;;;;30.83;19.23;;;;;;;16.52;100.00;101259.81;4992554;28;20076;-81
2023/09/17 07:00:07;;;;;;;31.05;19.17;;;;;;;16.44;100.00;101256.22;4995350;28;20029;-81
2023/09/17 07:02:32;;;;;;;32.75;20.73;;;;;;;16.44;100.00;101250.56;4994215;28;20038;-81
2023/09/17 07:05:00;;;;;;;34.28;20.85;;;;;;;16.44;100.00;101244.09;4981762;28;20030;-81
2023/09/17 07:07:26;;;;;;;28.00;18.50;;;;;;;16.51;100.00;101251.72;4981757;28;20042;-81
2023/09/17 07:09:52;;;;;;;26.98;17.08;;;;;;;16.57;100.00;101250.09;4992308;28;20034;-81
2023/09/17 07:12:17;;;;;;;27.60;18.33;;;;;;;16.63;100.00;101254.09;4992995;28;20030;-81
2023/09/17 07:14:42;;;;;;;28.98;17.90;;;;;;;16.64;100.00;101252.91;4973138;28;20042;-82
2023/09/17 07:17:08;;;;;;;27.40;15.75;;;;;;;16.67;100.00;101252.06;4982173;28;22736;-81
2023/09/17 07:19:33;;;;;;;39.13;22.08;;;;;;;16.63;100.00;101251.28;4994642;28;20072;-82
2023/09/17 07:21:59;;;;;;;36.53;20.55;;;;;;;16.75;100.00;101248.00;4993669;28;20033;-82
2023/09/17 07:24:24;;;;;;;36.00;20.95;;;;;;;16.66;100.00;101251.28;4999145;28;20061;-82
2023/09/17 07:26:50;;;;;;;33.05;18.65;;;;;;;16.65;100.00;101252.50;4974429;28;20073;-82
2023/09/17 07:29:15;;;;;;;24.75;15.35;;;;;;;16.76;100.00;101249.63;4996393;28;20076;-82
2023/09/17 07:31:41;;;;;;;31.98;20.23;;;;;;;16.58;100.00;101243.25;4999700;28;20073;-82
2023/09/17 07:34:07;;;;;;;33.90;21.75;;;;;;;16.57;100.00;101250.09;4978470;28;20143;-82
2023/09/17 07:36:32;;;;;;;41.65;25.38;;;;;;;16.65;100.00;101243.19;4996114;28;20498;-83
2023/09/17 07:38:57;;;;;;;35.90;22.02;;;;;;;16.51;100.00;101240.44;4982537;28;20437;-82
2023/09/17 07:41:23;;;;;;;30.55;18.27;;;;;;;16.54;100.00;101248.91;5011261;28;20113;-83
2023/09/17 07:43:48;;;;;;;35.22;23.77;;;;;;;16.70;100.00;101239.13;4987951;28;20026;-83
2023/09/17 07:46:14;;;;;;;41.08;24.73;;;;;;;16.55;100.00;101241.22;5003213;28;20474;-83
2023/09/17 07:48:43;;;;;;;31.80;20.27;;;;;;;16.60;100.00;101235.16;5004530;28;20504;-82
2023/09/17 07:51:09;;;;;;;31.98;19.67;;;;;;;16.51;100.00;101238.44;4999687;28;20581;-91
2023/09/17 07:53:34;;;;;;;40.47;22.50;;;;;;;16.64;100.00;101241.59;4982538;28;20203;-90
2023/09/17 07:56:00;;;;;;;28.65;17.05;;;;;;;16.91;100.00;101247.53;5002231;28;20032;-91
2023/09/17 07:58:25;;;;;;;33.63;20.98;;;;;;;16.84;100.00;101251.22;4990587;28;20121;-90
2023/09/17 08:00:51;;;;;;;38.97;23.98;;;;;;;16.64;100.00;101242.41;4987161;28;20028;-91
2023/09/17 08:03:17;;;;;;;34.30;22.45;;;;;;;16.63;100.00;101243.63;4999053;28;20493;-89
2023/09/17 08:05:46;;;;;;;39.38;24.40;;;;;;;16.49;100.00;101234.41;5007557;28;20041;-90
2023/09/17 08:08:12;;;;;;;37.38;22.98;;;;;;;16.45;100.00;101231.59;4989542;28;20034;-88
2023/09/17 08:10:38;;;;;;;36.47;22.13;;;;;;;16.45;100.00;101235.22;4986788;28;21613;-90
2023/09/17 08:13:03;;;;;;;37.63;22.02;;;;;;;16.49;100.00;101242.88;4985257;28;20533;-89
2023/09/17 08:15:29;;;;;;;33.33;20.88;;;;;;;16.59;100.00;101233.53;4997311;28;20049;-89
2023/09/17 08:17:58;;;;;;;36.75;23.33;;;;;;;16.69;100.00;101243.97;4981879;28;20037;-89
2023/09/17 08:20:24;;;;;;;36.22;23.52;;;;;;;16.94;100.00;101240.25;5000229;28;20112;-89
2023/09/17 08:22:51;;;;;;;40.55;23.45;;;;;;;17.26;100.00;101232.34;4985868;28;20492;-89
2023/09/17 08:25:17;;;;;;;38.78;25.73;;;;;;;17.07;100.00;101230.06;4983353;28;20490;-88
2023/09/17 08:27:43;;;;;;;41.65;25.60;;;;;;;16.91;100.00;101233.41;4982624;28;20034;-88
2023/09/17 08:30:11;;;;;;;38.00;25.80;;;;;;;16.92;100.00;101234.22;5003070;28;20032;-89
2023/09/17 08:32:40;;;;;;;34.53;21.50;;;;;;;17.15;100.00;101225.16;4975734;28;20030;-89
2023/09/17 08:35:07;;;;;;;38.95;24.70;;;;;;;17.05;100.00;101230.50;5004137;28;20402;-89
2023/09/17 08:37:34;;;;;;;39.45;23.02;;;;;;;17.31;100.00;101216.13;4983935;28;21514;-88
2023/09/17 08:39:59;;;;;;;37.53;23.40;;;;;;;17.82;100.00;101229.47;4997560;28;20603;-88
2023/09/17 08:42:27;;;;;;;37.15;23.73;;;;;;;17.44;100.00;101231.41;4996225;28;20470;-88
2023/09/17 08:44:56;;;;;;;40.80;25.83;;;;;;;17.13;100.00;101205.78;5007663;28;20592;-88
2023/09/17 08:47:22;;;;;;;39.53;24.77;;;;;;;17.37;100.00;101214.47;4992871;28;20041;-88
2023/09/17 08:49:47;;;;;;;28.13;18.77;;;;;;;18.10;100.00;101212.59;4998813;28;20430;-87
2023/09/17 08:52:16;;;;;;;35.72;21.08;;;;;;;18.68;100.00;101210.66;4993254;28;20025;-88
2023/09/17 08:54:42;;;;;;;32.63;19.70;;;;;;;19.00;100.00;101229.28;4994237;28;20080;-87
2023/09/17 08:57:10;;;;;;;25.85;17.67;;;;;;;19.20;100.00;101223.69;5002225;28;20045;-88
2023/09/17 08:59:45;;;;;;;28.67;19.17;;;;;;;19.08;100.00;101239.28;4999900;28;20108;-87
2023/09/17 09:02:20;;;;;;;43.38;24.63;;;;;;;18.19;100.00;101212.88;5006077;28;20475;-87
2023/09/17 09:04:50;;;;;;;33.10;21.20;;;;;;;17.93;100.00;101218.03;4993659;28;20040;-87
2023/09/17 09:07:20;;;;;;;31.27;18.63;;;;;;;18.62;100.00;101206.69;5008322;28;20028;-87
2023/09/17 09:09:47;;;;;;;29.95;19.00;;;;;;;18.91;100.00;101224.16;5015616;28;20488;-87
2023/09/17 09:12:15;;;;;;;29.58;18.85;;;;;;;19.13;100.00;101218.16;4987029;28;20072;-87
2023/09/17 09:14:44;;;;;;;32.40;18.20;;;;;;;19.07;100.00;101214.97;4988707;28;20050;-87
2023/09/17 09:17:10;;;;;;;26.20;16.77;;;;;;;19.34;100.00;101217.00;4992352;28;20053;-87
2023/09/17 09:19:36;;;;;;;23.80;16.80;;;;;;;19.22;100.00;101224.88;4977331;28;20025;-86
2023/09/17 09:22:01;;;;;;;32.97;20.73;;;;;;;19.25;100.00;101221.19;4997611;28;20167;-86
2023/09/17 09:25:01;;;;;;;24.88;17.58;;;;;;;19.13;100.00;101230.28;4983222;28;20038;-86
2023/09/17 09:27:26;;;;;;;25.73;15.75;;;;;;;19.06;100.00;101219.84;4959496;28;20044;-86
2023/09/17 09:29:52;;;;;;;31.60;17.60;;;;;;;19.22;100.00;101221.22;4987194;28;20030;-86
2023/09/17 09:32:18;;;;;;;31.52;18.13;;;;;;;19.40;100.00;101212.44;5003668;28;20441;-86
2023/09/17 09:34:43;;;;;;;25.65;16.02;;;;;;;19.33;100.00;101209.69;5005864;28;20036;-85
2023/09/17 09:37:10;;;;;;;26.52;16.88;;;;;;;19.11;100.00;101201.53;4990754;28;20021;-86
2023/09/17 09:39:36;;;;;;;23.48;15.95;;;;;;;19.51;100.00;101204.53;4988942;28;20030;-86
2023/09/17 09:42:03;;;;;;;22.20;13.80;;;;;;;19.62;100.00;101215.69;4994739;28;20187;-86
2023/09/17 09:44:30;;;;;;;25.35;15.98;;;;;;;19.58;100.00;101203.59;4999638;28;20113;-86
2023/09/17 09:46:57;;;;;;;24.55;14.77;;;;;;;19.79;100.00;101213.81;5000032;28;20046;-86
2023/09/17 09:49:26;;;;;;;22.73;16.23;;;;;;;19.74;100.00;101214.31;4979693;28;20041;-86
2023/09/17 09:51:52;;;;;;;23.73;13.48;;;;;;;19.85;100.00;101207.19;5002480;28;20030;-86
2023/09/17 09:54:18;;;;;;;26.05;17.33;;;;;;;19.23;100.00;101200.94;4980860;28;20079;-85
2023/09/17 09:56:47;;;;;;;35.60;23.25;;;;;;;19.14;100.00;101214.84;4980011;28;20022;-85
2023/09/17 09:59:13;;;;;;;39.50;22.13;;;;;;;18.84;100.00;101207.22;5000418;28;20076;-85
2023/09/17 10:01:40;;;;;;;31.80;21.10;;;;;;;18.75;100.00;101199.22;4988381;28;20063;-85
2023/09/17 10:04:08;;;;;;;28.40;16.98;;;;;;;18.85;100.00;101198.28;4987545;28;20967;-85
2023/09/17 10:06:36;;;;;;;32.00;19.20;;;;;;;19.01;100.00;101202.50;5005350;28;20036;-85
2023/09/17 10:09:02;;;;;;;25.60;17.35;;;;;;;19.39;100.00;101191.75;5004573;28;20501;-85
2023/09/17 10:11:30;;;;;;;35.63;21.48;;;;;;;19.23;100.00;101195.28;4983907;28;20022;-86
2023/09/17 10:14:02;;;;;;;27.30;18.20;;;;;;;19.33;100.00;101198.34;4999544;28;20043;-85
2023/09/17 10:16:29;;;;;;;22.95;14.63;;;;;;;19.24;100.00;101174.16;4979769;28;20092;-86
2023/09/17 10:18:56;;;;;;;35.17;23.70;;;;;;;19.30;100.00;101189.47;4981982;28;20402;-85
2023/09/17 10:21:25;;;;;;;29.75;20.73;;;;;;;19.32;100.00;101185.41;4979603;28;20028;-85
2023/09/17 10:23:53;;;;;;;30.27;18.45;;;;;;;19.22;100.00;101185.13;4979504;28;20026;-85
2023/09/17 10:26:22;;;;;;;32.83;21.15;;;;;;;19.02;100.00;101184.25;4982087;28;20128;-85
2023/09/17 10:28:49;;;;;;;26.83;17.95;;;;;;;19.22;100.00;101181.50;4982284;28;20026;-85
2023/09/17 10:31:15;;;;;;;33.97;23.30;;;;;;;19.03;100.00;101163.16;4981522;28;20153;-85
2023/09/17 10:33:47;;;;;;;28.27;19.00;;;;;;;19.58;100.00;101170.31;4983387;28;20141;-85
2023/09/17 10:36:13;;;;;;;29.35;18.38;;;;;;;19.70;100.00;101172.56;4979588;28;20423;-85
2023/09/17 10:38:39;;;;;;;38.28;24.08;;;;;;;19.55;100.00;101161.88;4981703;28;20034;-85
2023/09/17 10:41:05;;;;;;;29.13;16.90;;;;;;;19.85;100.00;101169.47;4984035;28;20474;-85
2023/09/17 10:43:37;;;;;;;39.60;23.23;;;;;;;19.69;100.00;101158.75;4985664;28;20048;-84
2023/09/17 10:46:06;;;;;;;37.72;22.60;;;;;;;19.50;100.00;101166.00;4971338;28;20037;-85
2023/09/17 10:48:33;;;;;;;46.80;28.05;;;;;;;19.32;100.00;101154.19;4976987;28;20125;-85
2023/09/17 10:50:59;;;;;;;30.67;16.90;;;;;;;19.36;100.00;101152.09;4976209;28;20521;-85
2023/09/17 10:53:26;;;;;;;43.33;24.25;;;;;;;19.38;100.00;101152.47;4978776;28;20046;-85
2023/09/17 10:55:59;;;;;;;38.70;24.35;;;;;;;19.58;100.00;101153.28;4982814;28;20022;-85
2023/09/17 10:58:31;;;;;;;25.17;17.02;;;;;;;19.46;100.00;101134.06;4976531;28;20046;-85